sensor_id;sensor_type;location;lat;lon;timestamp;pressure;altitude;pressure_sealevel;temperature;humidity
8890;BME280;4481;43.406;24.454;2022-12-11T00:00:18;75724.22;;;-144.09;100.00
8890;BME280;4481;43.406;24.454;2022-12-11T00:02:45;75707.50;;;-144.09;100.00
8890;BME280;4481;43.406;24.454;2022-12-11T00:05:12;75699.16;;;-144.09;100.00
8890;BME280;4481;43.406;24.454;2022-12-11T00:07:39;75674.06;;;-144.09;100.00
8890;BME280;4481;43.406;24.454;2022-12-11T00:10:06;75678.25;;;-144.09;100.00
8890;BME280;4481;43.406;24.454;2022-12-11T00:12:32;75699.16;;;-144.09;100.00
8890;BME280;4481;43.406;24.454;2022-12-11T00:14:59;75697.06;;;-144.09;100.00
8890;BME280;4481;43.406;24.454;2022-12-11T00:17:25;75680.34;;;-144.09;100.00
8890;BME280;4481;43.406;24.454;2022-12-11T00:19:51;75678.25;;;-144.09;100.00
8890;BME280;4481;43.406;24.454;2022-12-11T00:22:17;75665.72;;;-144.09;100.00
8890;BME280;4481;43.406;24.454;2022-12-11T00:24:44;75686.59;;;-144.09;100.00
8890;BME280;4481;43.406;24.454;2022-12-11T00:27:10;75672.00;;;-144.09;100.00
8890;BME280;4481;43.406;24.454;2022-12-11T00:29:36;75676.16;;;-144.09;100.00
8890;BME280;4481;43.406;24.454;2022-12-11T00:32:03;75665.72;;;-144.09;100.00
8890;BME280;4481;43.406;24.454;2022-12-11T00:34:29;75667.81;;;-144.09;100.00
8890;BME280;4481;43.406;24.454;2022-12-11T00:36:55;75653.19;;;-144.09;100.00
8890;BME280;4481;43.406;24.454;2022-12-11T00:39:24;75644.84;;;-144.09;100.00
8890;BME280;4481;43.406;24.454;2022-12-11T00:41:51;75644.84;;;-144.09;100.00
8890;BME280;4481;43.406;24.454;2022-12-11T00:44:17;75632.28;;;-144.09;100.00
8890;BME280;4481;43.406;24.454;2022-12-11T00:46:43;75623.94;;;-144.09;100.00
8890;BME280;4481;43.406;24.454;2022-12-11T00:49:10;75644.84;;;-144.09;100.00
8890;BME280;4481;43.406;24.454;2022-12-11T00:51:36;75644.84;;;-144.09;100.00
8890;BME280;4481;43.406;24.454;2022-12-11T00:54:03;75640.66;;;-144.09;100.00
8890;BME280;4481;43.406;24.454;2022-12-11T00:56:29;75619.75;;;-144.09;100.00
8890;BME280;4481;43.406;24.454;2022-12-11T00:58:56;75613.50;;;-144.09;100.00
8890;BME280;4481;43.406;24.454;2022-12-11T01:01:23;75596.78;;;-144.09;100.00
8890;BME280;4481;43.406;24.454;2022-12-11T01:03:50;75577.97;;;-144.09;100.00
8890;BME280;4481;43.406;24.454;2022-12-11T01:06:19;75588.44;;;-144.09;100.00
8890;BME280;4481;43.406;24.454;2022-12-11T01:08:46;75577.97;;;-144.09;100.00
8890;BME280;4481;43.406;24.454;2022-12-11T01:11:14;75571.72;;;-144.09;100.00
8890;BME280;4481;43.406;24.454;2022-12-11T01:13:41;75569.63;;;-144.09;100.00
8890;BME280;4481;43.406;24.454;2022-12-11T01:16:10;75542.47;;;-144.09;100.00
8890;BME280;4481;43.406;24.454;2022-12-11T01:18:37;75538.28;;;-144.09;100.00
8890;BME280;4481;43.406;24.454;2022-12-11T01:21:07;75542.47;;;-144.09;100.00
8890;BME280;4481;43.406;24.454;2022-12-11T01:23:34;75552.91;;;-144.09;100.00
8890;BME280;4481;43.406;24.454;2022-12-11T01:26:05;75563.34;;;-144.09;100.00
8890;BME280;4481;43.406;24.454;2022-12-11T01:28:31;75571.72;;;-144.09;100.00
8890;BME280;4481;43.406;24.454;2022-12-11T01:30:58;75552.91;;;-144.09;100.00
8890;BME280;4481;43.406;24.454;2022-12-11T01:33:25;75550.81;;;-144.09;100.00
8890;BME280;4481;43.406;24.454;2022-12-11T01:35:51;75540.38;;;-144.09;100.00
8890;BME280;4481;43.406;24.454;2022-12-11T01:38:17;75534.13;;;-144.09;100.00
8890;BME280;4481;43.406;24.454;2022-12-11T01:40:45;75525.75;;;-144.09;100.00
8890;BME280;4481;43.406;24.454;2022-12-11T01:43:12;75523.66;;;-144.09;100.00
8890;BME280;4481;43.406;24.454;2022-12-11T01:45:39;75538.28;;;-144.09;100.00
8890;BME280;4481;43.406;24.454;2022-12-11T01:48:09;75527.84;;;-144.09;100.00
8890;BME280;4481;43.406;24.454;2022-12-11T01:50:40;75521.59;;;-144.09;100.00
8890;BME280;4481;43.406;24.454;2022-12-11T01:53:11;75513.22;;;-144.09;100.00
8890;BME280;4481;43.406;24.454;2022-12-11T01:55:39;75496.50;;;-144.09;100.00
8890;BME280;4481;43.406;24.454;2022-12-11T01:58:08;75513.22;;;-144.09;100.00
8890;BME280;4481;43.406;24.454;2022-12-11T02:00:35;75546.66;;;-144.09;100.00
8890;BME280;4481;43.406;24.454;2022-12-11T02:03:01;75534.13;;;-144.09;100.00
8890;BME280;4481;43.406;24.454;2022-12-11T02:05:27;75521.59;;;-144.09;100.00
8890;BME280;4481;43.406;24.454;2022-12-11T02:07:57;75540.38;;;-144.09;100.00
8890;BME280;4481;43.406;24.454;2022-12-11T02:10:46;75534.13;;;-144.09;100.00
8890;BME280;4481;43.406;24.454;2022-12-11T02:13:17;75527.84;;;-144.09;100.00
8890;BME280;4481;43.406;24.454;2022-12-11T02:15:50;75532.03;;;-144.09;100.00
8890;BME280;4481;43.406;24.454;2022-12-11T02:18:24;75527.84;;;-144.09;100.00
8890;BME280;4481;43.406;24.454;2022-12-11T02:20:59;75523.66;;;-144.09;100.00
8890;BME280;4481;43.406;24.454;2022-12-11T02:29:35;75500.69;;;-144.09;100.00
8890;BME280;4481;43.406;24.454;2022-12-11T02:32:05;75496.50;;;-144.09;100.00
8890;BME280;4481;43.406;24.454;2022-12-11T02:34:38;75548.75;;;-144.09;100.00
8890;BME280;4481;43.406;24.454;2022-12-11T02:37:08;75534.13;;;-144.09;100.00
8890;BME280;4481;43.406;24.454;2022-12-11T02:39:38;75519.50;;;-144.09;100.00
8890;BME280;4481;43.406;24.454;2022-12-11T02:42:07;75525.75;;;-144.09;100.00
8890;BME280;4481;43.406;24.454;2022-12-11T02:44:36;75515.31;;;-144.09;100.00
8890;BME280;4481;43.406;24.454;2022-12-11T02:47:04;75532.03;;;-144.09;100.00
8890;BME280;4481;43.406;24.454;2022-12-11T02:49:33;75529.94;;;-144.09;100.00
8890;BME280;4481;43.406;24.454;2022-12-11T02:52:02;75542.47;;;-144.09;100.00
8890;BME280;4481;43.406;24.454;2022-12-11T02:54:32;75515.31;;;-144.09;100.00
8890;BME280;4481;43.406;24.454;2022-12-11T02:57:03;75523.66;;;-144.09;100.00
8890;BME280;4481;43.406;24.454;2022-12-11T02:59:35;75525.75;;;-144.09;100.00
8890;BME280;4481;43.406;24.454;2022-12-11T03:02:02;75517.41;;;-144.09;100.00
8890;BME280;4481;43.406;24.454;2022-12-11T03:04:29;75532.03;;;-144.09;100.00
8890;BME280;4481;43.406;24.454;2022-12-11T03:06:58;75544.56;;;-144.09;100.00
8890;BME280;4481;43.406;24.454;2022-12-11T03:09:27;75557.09;;;-144.09;100.00
8890;BME280;4481;43.406;24.454;2022-12-11T03:11:53;75571.72;;;-144.09;100.00
8890;BME280;4481;43.406;24.454;2022-12-11T03:14:20;75605.13;;;-144.09;100.00
8890;BME280;4481;43.406;24.454;2022-12-11T03:16:51;75598.88;;;-144.09;100.00
8890;BME280;4481;43.406;24.454;2022-12-11T03:19:27;75571.72;;;-144.09;100.00
8890;BME280;4481;43.406;24.454;2022-12-11T03:22:01;75555.00;;;-144.09;100.00
8890;BME280;4481;43.406;24.454;2022-12-11T03:24:31;75546.66;;;-144.09;100.00
8890;BME280;4481;43.406;24.454;2022-12-11T03:27:05;75548.75;;;-144.09;100.00
8890;BME280;4481;43.406;24.454;2022-12-11T03:29:39;75532.03;;;-144.09;100.00
8890;BME280;4481;43.406;24.454;2022-12-11T03:32:09;75542.47;;;-144.09;100.00
8890;BME280;4481;43.406;24.454;2022-12-11T03:34:40;75559.19;;;-144.09;100.00
8890;BME280;4481;43.406;24.454;2022-12-11T03:37:09;75538.28;;;-144.09;100.00
8890;BME280;4481;43.406;24.454;2022-12-11T03:39:38;75523.66;;;-144.09;100.00
8890;BME280;4481;43.406;24.454;2022-12-11T03:42:08;75529.94;;;-144.09;100.00
8890;BME280;4481;43.406;24.454;2022-12-11T03:44:36;75548.75;;;-144.09;100.00
8890;BME280;4481;43.406;24.454;2022-12-11T03:47:06;75544.56;;;-144.09;100.00
8890;BME280;4481;43.406;24.454;2022-12-11T03:49:36;75546.66;;;-144.09;100.00
8890;BME280;4481;43.406;24.454;2022-12-11T03:52:05;75548.75;;;-144.09;100.00
8890;BME280;4481;43.406;24.454;2022-12-11T03:54:33;75557.09;;;-144.09;100.00
8890;BME280;4481;43.406;24.454;2022-12-11T03:57:01;75565.44;;;-144.09;100.00
8890;BME280;4481;43.406;24.454;2022-12-11T03:59:29;75594.69;;;-144.09;100.00
8890;BME280;4481;43.406;24.454;2022-12-11T04:01:56;75580.06;;;-144.09;100.00
8890;BME280;4481;43.406;24.454;2022-12-11T04:04:22;75580.06;;;-144.09;100.00
8890;BME280;4481;43.406;24.454;2022-12-11T04:06:49;75571.72;;;-144.09;100.00
8890;BME280;4481;43.406;24.454;2022-12-11T04:09:15;75582.16;;;-144.09;100.00
8890;BME280;4481;43.406;24.454;2022-12-11T04:11:41;75586.34;;;-144.09;100.00
8890;BME280;4481;43.406;24.454;2022-12-11T04:14:09;75588.44;;;-144.09;100.00
8890;BME280;4481;43.406;24.454;2022-12-11T04:16:54;75646.91;;;-144.09;100.00
8890;BME280;4481;43.406;24.454;2022-12-11T04:19:22;75653.19;;;-144.09;100.00
8890;BME280;4481;43.406;24.454;2022-12-11T04:22:07;75630.22;;;-144.09;100.00
8890;BME280;4481;43.406;24.454;2022-12-11T04:24:52;75605.13;;;-144.09;100.00
8890;BME280;4481;43.406;24.454;2022-12-11T04:27:19;75590.50;;;-144.09;100.00
8890;BME280;4481;43.406;24.454;2022-12-11T04:29:59;75588.44;;;-144.09;100.00
8890;BME280;4481;43.406;24.454;2022-12-11T04:32:25;75584.25;;;-144.09;100.00
8890;BME280;4481;43.406;24.454;2022-12-11T04:34:52;75586.34;;;-144.09;100.00
8890;BME280;4481;43.406;24.454;2022-12-11T04:37:18;75571.72;;;-144.09;100.00
8890;BME280;4481;43.406;24.454;2022-12-11T04:39:45;75557.09;;;-144.09;100.00
8890;BME280;4481;43.406;24.454;2022-12-11T04:42:11;75548.75;;;-144.09;100.00
8890;BME280;4481;43.406;24.454;2022-12-11T04:44:37;75542.47;;;-144.09;100.00
8890;BME280;4481;43.406;24.454;2022-12-11T04:47:03;75523.66;;;-144.09;100.00
8890;BME280;4481;43.406;24.454;2022-12-11T04:49:29;75525.75;;;-144.09;100.00
8890;BME280;4481;43.406;24.454;2022-12-11T04:51:56;75519.50;;;-144.09;100.00
8890;BME280;4481;43.406;24.454;2022-12-11T04:54:22;75529.94;;;-144.09;100.00
8890;BME280;4481;43.406;24.454;2022-12-11T04:56:49;75532.03;;;-144.09;100.00
8890;BME280;4481;43.406;24.454;2022-12-11T04:59:15;75538.28;;;-144.09;100.00
8890;BME280;4481;43.406;24.454;2022-12-11T05:01:41;75548.75;;;-144.09;100.00
8890;BME280;4481;43.406;24.454;2022-12-11T05:04:07;75536.19;;;-144.09;100.00
8890;BME280;4481;43.406;24.454;2022-12-11T05:06:33;75521.59;;;-144.09;100.00
8890;BME280;4481;43.406;24.454;2022-12-11T05:09:00;75511.13;;;-144.09;100.00
8890;BME280;4481;43.406;24.454;2022-12-11T05:11:26;75509.03;;;-144.09;100.00
8890;BME280;4481;43.406;24.454;2022-12-11T05:13:53;75509.03;;;-144.09;100.00
8890;BME280;4481;43.406;24.454;2022-12-11T05:16:19;75523.66;;;-144.09;100.00
8890;BME280;4481;43.406;24.454;2022-12-11T05:18:45;75521.59;;;-144.09;100.00
8890;BME280;4481;43.406;24.454;2022-12-11T05:21:13;75517.41;;;-144.09;100.00
8890;BME280;4481;43.406;24.454;2022-12-11T05:23:41;75513.22;;;-144.09;100.00
8890;BME280;4481;43.406;24.454;2022-12-11T05:26:11;75515.31;;;-144.09;100.00
8890;BME280;4481;43.406;24.454;2022-12-11T05:28:38;75513.22;;;-144.09;100.00
8890;BME280;4481;43.406;24.454;2022-12-11T05:31:06;75504.88;;;-144.09;100.00
8890;BME280;4481;43.406;24.454;2022-12-11T05:33:33;75517.41;;;-144.09;100.00
8890;BME280;4481;43.406;24.454;2022-12-11T05:35:59;75498.59;;;-144.09;100.00
8890;BME280;4481;43.406;24.454;2022-12-11T05:38:25;75486.06;;;-144.09;100.00
8890;BME280;4481;43.406;24.454;2022-12-11T05:40:55;75483.97;;;-144.09;100.00
8890;BME280;4481;43.406;24.454;2022-12-11T05:43:23;75479.81;;;-144.09;100.00
8890;BME280;4481;43.406;24.454;2022-12-11T05:45:49;75477.72;;;-144.09;100.00
8890;BME280;4481;43.406;24.454;2022-12-11T05:48:15;75458.91;;;-144.09;100.00
8890;BME280;4481;43.406;24.454;2022-12-11T05:50:41;75454.75;;;-144.09;100.00
8890;BME280;4481;43.406;24.454;2022-12-11T05:53:08;75454.75;;;-144.09;100.00
8890;BME280;4481;43.406;24.454;2022-12-11T05:55:34;75446.38;;;-144.09;100.00
8890;BME280;4481;43.406;24.454;2022-12-11T05:58:01;75433.84;;;-144.09;100.00
8890;BME280;4481;43.406;24.454;2022-12-11T06:00:28;75435.94;;;-144.09;100.00
8890;BME280;4481;43.406;24.454;2022-12-11T06:02:54;75431.75;;;-144.09;100.00
8890;BME280;4481;43.406;24.454;2022-12-11T06:05:20;75415.03;;;-144.09;100.00
8890;BME280;4481;43.406;24.454;2022-12-11T06:07:46;75421.31;;;-144.09;100.00
8890;BME280;4481;43.406;24.454;2022-12-11T06:10:13;75412.97;;;-144.09;100.00
8890;BME280;4481;43.406;24.454;2022-12-11T06:12:39;75404.59;;;-144.09;100.00
8890;BME280;4481;43.406;24.454;2022-12-11T06:15:06;75396.25;;;-144.09;100.00
8890;BME280;4481;43.406;24.454;2022-12-11T06:17:33;75398.34;;;-144.09;100.00
8890;BME280;4481;43.406;24.454;2022-12-11T06:19:59;75387.88;;;-144.09;100.00
8890;BME280;4481;43.406;24.454;2022-12-11T06:22:25;75385.81;;;-144.09;100.00
8890;BME280;4481;43.406;24.454;2022-12-11T06:24:52;75375.34;;;-144.09;100.00
8890;BME280;4481;43.406;24.454;2022-12-11T06:27:18;75369.09;;;-144.09;100.00
8890;BME280;4481;43.406;24.454;2022-12-11T06:29:45;75371.19;;;-144.09;100.00
8890;BME280;4481;43.406;24.454;2022-12-11T06:32:11;75362.81;;;-144.09;100.00
8890;BME280;4481;43.406;24.454;2022-12-11T06:34:38;75369.09;;;-144.09;100.00
8890;BME280;4481;43.406;24.454;2022-12-11T06:37:04;75377.44;;;-144.09;100.00
8890;BME280;4481;43.406;24.454;2022-12-11T06:39:31;75381.63;;;-144.09;100.00
8890;BME280;4481;43.406;24.454;2022-12-11T06:41:57;75385.81;;;-144.09;100.00
8890;BME280;4481;43.406;24.454;2022-12-11T06:44:23;75369.09;;;-144.09;100.00
8890;BME280;4481;43.406;24.454;2022-12-11T06:46:49;75354.47;;;-144.09;100.00
8890;BME280;4481;43.406;24.454;2022-12-11T06:49:16;75344.03;;;-144.09;100.00
8890;BME280;4481;43.406;24.454;2022-12-11T06:51:43;75350.28;;;-144.09;100.00
8890;BME280;4481;43.406;24.454;2022-12-11T06:54:09;75377.44;;;-144.09;100.00
8890;BME280;4481;43.406;24.454;2022-12-11T06:56:35;75408.78;;;-144.09;100.00
8890;BME280;4481;43.406;24.454;2022-12-11T06:59:01;75431.75;;;-144.09;100.00
8890;BME280;4481;43.406;24.454;2022-12-11T07:01:27;75486.06;;;-144.09;100.00
8890;BME280;4481;43.406;24.454;2022-12-11T07:03:54;75477.72;;;-144.09;100.00
8890;BME280;4481;43.406;24.454;2022-12-11T07:06:21;75486.06;;;-144.09;100.00
8890;BME280;4481;43.406;24.454;2022-12-11T07:08:48;75481.88;;;-144.09;100.00
8890;BME280;4481;43.406;24.454;2022-12-11T07:11:15;75498.59;;;-144.09;100.00
8890;BME280;4481;43.406;24.454;2022-12-11T07:13:42;75498.59;;;-144.09;100.00
8890;BME280;4481;43.406;24.454;2022-12-11T07:16:10;75517.41;;;-144.09;100.00
8890;BME280;4481;43.406;24.454;2022-12-11T07:18:37;75519.50;;;-144.09;100.00
8890;BME280;4481;43.406;24.454;2022-12-11T07:21:04;75509.03;;;-144.09;100.00
8890;BME280;4481;43.406;24.454;2022-12-11T07:23:30;75523.66;;;-144.09;100.00
8890;BME280;4481;43.406;24.454;2022-12-11T07:25:57;75536.19;;;-144.09;100.00
8890;BME280;4481;43.406;24.454;2022-12-11T07:28:24;75552.91;;;-144.09;100.00
8890;BME280;4481;43.406;24.454;2022-12-11T07:30:50;75577.97;;;-144.09;100.00
8890;BME280;4481;43.406;24.454;2022-12-11T07:33:16;75607.22;;;-144.09;100.00
8890;BME280;4481;43.406;24.454;2022-12-11T07:35:43;75598.88;;;-144.09;100.00
8890;BME280;4481;43.406;24.454;2022-12-11T07:38:09;75653.19;;;-144.09;100.00
8890;BME280;4481;43.406;24.454;2022-12-11T07:40:36;75686.59;;;-144.09;100.00
8890;BME280;4481;43.406;24.454;2022-12-11T07:43:02;75682.44;;;-144.09;100.00
8890;BME280;4481;43.406;24.454;2022-12-11T07:45:29;75684.53;;;-144.09;100.00
8890;BME280;4481;43.406;24.454;2022-12-11T07:47:55;75699.16;;;-144.09;100.00
8890;BME280;4481;43.406;24.454;2022-12-11T07:50:21;75717.94;;;-144.09;100.00
8890;BME280;4481;43.406;24.454;2022-12-11T07:52:48;75732.56;;;-144.09;100.00
8890;BME280;4481;43.406;24.454;2022-12-11T07:55:14;75726.31;;;-144.09;100.00
8890;BME280;4481;43.406;24.454;2022-12-11T07:57:40;75715.84;;;-144.09;100.00
8890;BME280;4481;43.406;24.454;2022-12-11T08:00:08;75728.38;;;-144.09;100.00
8890;BME280;4481;43.406;24.454;2022-12-11T08:02:36;75717.94;;;-144.09;100.00
8890;BME280;4481;43.406;24.454;2022-12-11T08:05:02;75709.59;;;-144.09;100.00
8890;BME280;4481;43.406;24.454;2022-12-11T08:07:28;75717.94;;;-144.09;100.00
8890;BME280;4481;43.406;24.454;2022-12-11T08:09:55;75711.69;;;-144.09;100.00
8890;BME280;4481;43.406;24.454;2022-12-11T08:12:21;75707.50;;;-144.09;100.00
8890;BME280;4481;43.406;24.454;2022-12-11T08:14:47;75707.50;;;-144.09;100.00
8890;BME280;4481;43.406;24.454;2022-12-11T08:17:14;75697.06;;;-144.09;100.00
8890;BME280;4481;43.406;24.454;2022-12-11T08:19:40;75686.59;;;-144.09;100.00
8890;BME280;4481;43.406;24.454;2022-12-11T08:22:06;75701.22;;;-144.09;100.00
8890;BME280;4481;43.406;24.454;2022-12-11T08:24:32;75699.16;;;-144.09;100.00
8890;BME280;4481;43.406;24.454;2022-12-11T08:26:59;75722.13;;;-144.09;100.00
8890;BME280;4481;43.406;24.454;2022-12-11T08:29:25;75747.19;;;-144.09;100.00
8890;BME280;4481;43.406;24.454;2022-12-11T08:31:51;75757.63;;;-144.09;100.00
8890;BME280;4481;43.406;24.454;2022-12-11T08:34:18;75805.69;;;-144.09;100.00
8890;BME280;4481;43.406;24.454;2022-12-11T08:36:44;75799.41;;;-144.09;100.00
8890;BME280;4481;43.406;24.454;2022-12-11T08:39:10;75799.41;;;-144.09;100.00
8890;BME280;4481;43.406;24.454;2022-12-11T08:41:36;75816.13;;;-144.09;100.00
8890;BME280;4481;43.406;24.454;2022-12-11T08:44:03;75797.34;;;-144.09;100.00
8890;BME280;4481;43.406;24.454;2022-12-11T08:46:30;75822.41;;;-144.09;100.00
8890;BME280;4481;43.406;24.454;2022-12-11T08:48:57;75837.03;;;-144.09;100.00
8890;BME280;4481;43.406;24.454;2022-12-11T08:51:26;75837.03;;;-144.09;100.00
8890;BME280;4481;43.406;24.454;2022-12-11T08:53:54;75845.38;;;-144.09;100.00
8890;BME280;4481;43.406;24.454;2022-12-11T08:56:21;75843.28;;;-144.09;100.00
8890;BME280;4481;43.406;24.454;2022-12-11T08:58:49;75839.13;;;-144.09;100.00
8890;BME280;4481;43.406;24.454;2022-12-11T09:01:16;75837.03;;;-144.09;100.00
8890;BME280;4481;43.406;24.454;2022-12-11T09:03:43;75830.75;;;-144.09;100.00
8890;BME280;4481;43.406;24.454;2022-12-11T09:06:11;75826.56;;;-144.09;100.00
8890;BME280;4481;43.406;24.454;2022-12-11T09:08:39;75807.78;;;-144.09;100.00
8890;BME280;4481;43.406;24.454;2022-12-11T09:11:07;75786.88;;;-144.09;100.00
8890;BME280;4481;43.406;24.454;2022-12-11T09:13:34;75816.13;;;-144.09;100.00
8890;BME280;4481;43.406;24.454;2022-12-11T09:16:02;75826.56;;;-144.09;97.89
8890;BME280;4481;43.406;24.454;2022-12-11T09:18:28;75832.84;;;-144.09;98.52
8890;BME280;4481;43.406;24.454;2022-12-11T09:20:59;75855.81;;;-144.09;97.24
8890;BME280;4481;43.406;24.454;2022-12-11T09:23:25;75841.19;;;-144.09;96.83
8890;BME280;4481;43.406;24.454;2022-12-11T09:25:52;75857.91;;;-144.09;96.76
8890;BME280;4481;43.406;24.454;2022-12-11T09:28:18;75895.53;;;-144.09;97.92
8890;BME280;4481;43.406;24.454;2022-12-11T09:30:45;75895.53;;;-144.09;98.80
8890;BME280;4481;43.406;24.454;2022-12-11T09:33:11;75908.06;;;-144.09;99.81
8890;BME280;4481;43.406;24.454;2022-12-11T09:35:37;75933.13;;;-144.09;100.00
8890;BME280;4481;43.406;24.454;2022-12-11T09:38:03;75916.41;;;-144.09;100.00
8890;BME280;4481;43.406;24.454;2022-12-11T09:40:30;75924.78;;;-144.09;97.85
8890;BME280;4481;43.406;24.454;2022-12-11T09:43:04;75920.59;;;-144.09;98.05
8890;BME280;4481;43.406;24.454;2022-12-11T09:45:32;75935.22;;;-144.09;98.93
8890;BME280;4481;43.406;24.454;2022-12-11T09:47:59;75920.59;;;-144.09;99.38
8890;BME280;4481;43.406;24.454;2022-12-11T09:50:28;75918.50;;;-144.09;97.17
8890;BME280;4481;43.406;24.454;2022-12-11T09:53:04;75926.84;;;-144.09;97.70
8890;BME280;4481;43.406;24.454;2022-12-11T09:55:38;75905.97;;;-144.09;97.31
8890;BME280;4481;43.406;24.454;2022-12-11T09:58:14;75918.50;;;-144.09;96.03
8890;BME280;4481;43.406;24.454;2022-12-11T10:00:47;75922.69;;;-144.09;96.84
8890;BME280;4481;43.406;24.454;2022-12-11T10:03:43;75901.78;;;-144.09;96.79
8890;BME280;4481;43.406;24.454;2022-12-11T10:06:20;75918.50;;;-144.09;97.98
8890;BME280;4481;43.406;24.454;2022-12-11T10:08:56;75916.41;;;-144.09;96.00
8890;BME280;4481;43.406;24.454;2022-12-11T10:11:34;75889.25;;;-144.09;96.27
8890;BME280;4481;43.406;24.454;2022-12-11T10:14:09;75880.91;;;-144.09;97.00
8890;BME280;4481;43.406;24.454;2022-12-11T10:16:39;75874.63;;;-144.09;96.95
8890;BME280;4481;43.406;24.454;2022-12-11T10:19:14;75872.53;;;-144.09;97.51
8890;BME280;4481;43.406;24.454;2022-12-11T10:21:41;75880.91;;;-144.09;96.17
8890;BME280;4481;43.406;24.454;2022-12-11T10:24:15;75908.06;;;-144.09;95.30
8890;BME280;4481;43.406;24.454;2022-12-11T10:26:43;75912.22;;;-144.09;97.08
8890;BME280;4481;43.406;24.454;2022-12-11T10:29:13;75870.44;;;-144.09;98.34
8890;BME280;4481;43.406;24.454;2022-12-11T10:31:43;75880.91;;;-144.09;98.26
8890;BME280;4481;43.406;24.454;2022-12-11T10:34:19;75891.34;;;-144.09;97.22
8890;BME280;4481;43.406;24.454;2022-12-11T10:36:47;75926.84;;;-144.09;97.22
8890;BME280;4481;43.406;24.454;2022-12-11T10:39:16;75945.66;;;-144.09;95.80
8890;BME280;4481;43.406;24.454;2022-12-11T10:41:44;75916.41;;;-144.09;95.40
8890;BME280;4481;43.406;24.454;2022-12-11T10:44:16;75903.88;;;-144.09;95.93
8890;BME280;4481;43.406;24.454;2022-12-11T10:46:42;75939.38;;;-144.09;94.60
8890;BME280;4481;43.406;24.454;2022-12-11T10:49:20;75926.84;;;-144.09;95.47
8890;BME280;4481;43.406;24.454;2022-12-11T10:51:47;75972.81;;;-144.09;94.58
8890;BME280;4481;43.406;24.454;2022-12-11T10:54:24;75972.81;;;-144.09;95.28
8890;BME280;4481;43.406;24.454;2022-12-11T10:56:54;75983.25;;;-144.09;95.60
8890;BME280;4481;43.406;24.454;2022-12-11T10:59:23;75985.34;;;-144.09;95.78
8890;BME280;4481;43.406;24.454;2022-12-11T11:01:51;75977.00;;;-144.09;95.37
8890;BME280;4481;43.406;24.454;2022-12-11T11:04:20;75956.09;;;-144.09;95.91
8890;BME280;4481;43.406;24.454;2022-12-11T11:07:00;75974.91;;;-144.09;96.71
8890;BME280;4481;43.406;24.454;2022-12-11T11:09:28;75964.47;;;-144.09;96.07
8890;BME280;4481;43.406;24.454;2022-12-11T11:11:55;75985.34;;;-144.09;96.63
8890;BME280;4481;43.406;24.454;2022-12-11T11:14:22;76016.69;;;-144.09;96.97
8890;BME280;4481;43.406;24.454;2022-12-11T11:16:50;76056.38;;;-144.09;99.26
8890;BME280;4481;43.406;24.454;2022-12-11T11:19:20;76083.53;;;-144.09;99.25
8890;BME280;4481;43.406;24.454;2022-12-11T11:21:49;76087.72;;;-144.09;100.00
8890;BME280;4481;43.406;24.454;2022-12-11T11:24:23;76073.09;;;-144.09;100.00
8890;BME280;4481;43.406;24.454;2022-12-11T11:26:51;76100.25;;;-144.09;100.00
8890;BME280;4481;43.406;24.454;2022-12-11T11:29:26;76079.38;;;-144.09;100.00
8890;BME280;4481;43.406;24.454;2022-12-11T11:31:54;76020.88;;;-144.09;100.00
8890;BME280;4481;43.406;24.454;2022-12-11T11:34:20;75995.81;;;-144.09;100.00
8890;BME280;4481;43.406;24.454;2022-12-11T11:36:54;76041.75;;;-144.09;99.76
8890;BME280;4481;43.406;24.454;2022-12-11T11:39:26;76041.75;;;-144.09;100.00
8890;BME280;4481;43.406;24.454;2022-12-11T11:41:59;76031.31;;;-144.09;100.00
8890;BME280;4481;43.406;24.454;2022-12-11T11:44:32;76064.75;;;-144.09;100.00
8890;BME280;4481;43.406;24.454;2022-12-11T11:47:03;76052.22;;;-144.09;100.00
8890;BME280;4481;43.406;24.454;2022-12-11T11:49:44;76062.66;;;-144.09;100.00
8890;BME280;4481;43.406;24.454;2022-12-11T11:52:16;76056.38;;;-144.09;100.00
8890;BME280;4481;43.406;24.454;2022-12-11T11:54:49;76050.13;;;-144.09;99.14
8890;BME280;4481;43.406;24.454;2022-12-11T11:57:26;76060.56;;;-144.09;98.31
8890;BME280;4481;43.406;24.454;2022-12-11T11:59:57;76068.94;;;-144.09;98.08
8890;BME280;4481;43.406;24.454;2022-12-11T12:02:24;76106.53;;;-144.09;99.28
8890;BME280;4481;43.406;24.454;2022-12-11T12:04:51;76114.88;;;-144.09;98.78
8890;BME280;4481;43.406;24.454;2022-12-11T12:07:26;76135.78;;;-144.09;100.00
8890;BME280;4481;43.406;24.454;2022-12-11T12:10:00;76121.16;;;-144.09;100.00
8890;BME280;4481;43.406;24.454;2022-12-11T12:12:33;76139.97;;;-144.09;100.00
8890;BME280;4481;43.406;24.454;2022-12-11T12:15:28;76146.22;;;-144.09;100.00
8890;BME280;4481;43.406;24.454;2022-12-11T12:17:56;76165.03;;;-144.09;100.00
8890;BME280;4481;43.406;24.454;2022-12-11T12:20:37;76158.75;;;-144.09;100.00
8890;BME280;4481;43.406;24.454;2022-12-11T12:23:22;76192.19;;;-144.09;100.00
8890;BME280;4481;43.406;24.454;2022-12-11T12:25:56;76181.75;;;-144.09;100.00
8890;BME280;4481;43.406;24.454;2022-12-11T12:28:34;76192.19;;;-144.09;100.00
8890;BME280;4481;43.406;24.454;2022-12-11T12:31:15;76192.19;;;-144.09;100.00
8890;BME280;4481;43.406;24.454;2022-12-11T12:33:52;76188.00;;;-144.09;100.00
8890;BME280;4481;43.406;24.454;2022-12-11T12:36:29;76177.56;;;-144.09;100.00
8890;BME280;4481;43.406;24.454;2022-12-11T12:39:00;76192.19;;;-144.09;100.00
8890;BME280;4481;43.406;24.454;2022-12-11T12:41:35;76206.81;;;-144.09;100.00
8890;BME280;4481;43.406;24.454;2022-12-11T12:44:12;76225.63;;;-144.09;100.00
8890;BME280;4481;43.406;24.454;2022-12-11T12:46:48;76229.81;;;-144.09;100.00
8890;BME280;4481;43.406;24.454;2022-12-11T12:49:22;76246.50;;;-144.09;100.00
8890;BME280;4481;43.406;24.454;2022-12-11T12:51:50;76240.25;;;-144.09;100.00
8890;BME280;4481;43.406;24.454;2022-12-11T12:54:18;76244.44;;;-144.09;100.00
8890;BME280;4481;43.406;24.454;2022-12-11T12:56:46;76250.69;;;-144.09;100.00